WetterOnline ( https://www.wetteronline.ch )

Wetter aktuell Frankfurt (Oder)

Aktuelles Wetter: Lindenberg b. Beeskow (104m)

6-stündlich | Neueste Meldungen
Ortszeit Temperatur Wetter
Sa, 08.08. 20:00 30.1° C wolkenlos
Sa, 08.08. 14:00 33.5° C wolkenlos
Sa, 08.08. 8:00 22.7° C wolkenlos
Sa, 08.08. 2:00 25.0° C wolkenlos
Fr, 07.08. 20:00 30.6° C wolkenlos
Fr, 07.08. 14:00 30.6° C wolkenlos
Fr, 07.08. 8:00 21.2° C wolkig
Fr, 07.08. 2:00 21.3° C wolkenlos
Ortszeit Temperatur Wetter
Sa, 08.08. 20:00 30.1° C wolkenlos
Sa, 08.08. 19:50 30.1° C wolkenlos
Sa, 08.08. 19:40 30.7° C wolkenlos
Sa, 08.08. 19:30 31.3° C wolkenlos
Sa, 08.08. 19:20 31.3° C wolkenlos
Sa, 08.08. 19:10 31.8° C fast wolkenlos
Sa, 08.08. 19:00 31.8° C fast wolkenlos
Sa, 08.08. 18:30 32.0° C wolkig
Sa, 08.08. 18:00 33.3° C fast wolkenlos
Sa, 08.08. 17:30 34.0° C fast wolkenlos
Sa, 08.08. 17:00 34.3° C bewölkt
Sa, 08.08. 16:30 33.7° C bewölkt
Ortszeit Relative Feuchte Sichtweite
Sa, 08.08. 20:00 36% 45 km
Sa, 08.08. 14:00 28% >70 km
Sa, 08.08. 8:00 67% 28 km
Sa, 08.08. 2:00 51% 35 km
Fr, 07.08. 20:00 40% 50 km
Fr, 07.08. 14:00 42% 21 km
Fr, 07.08. 8:00 65% 55 km
Fr, 07.08. 2:00 63% 55 km
Ortszeit Relative Feuchte Sichtweite
Sa, 08.08. 20:00 36% 45 km
Sa, 08.08. 19:50 36% -
Sa, 08.08. 19:40 35% -
Sa, 08.08. 19:30 34% 30 km
Sa, 08.08. 19:20 34% -
Sa, 08.08. 19:10 32% -
Sa, 08.08. 19:00 32% 35 km
Sa, 08.08. 18:30 31% 45 km
Sa, 08.08. 18:00 28% 40 km
Sa, 08.08. 17:30 26% 60 km
Sa, 08.08. 17:00 25% 50 km
Sa, 08.08. 16:30 26% 65 km
Ortszeit Niederschlagsmenge Niederschlagsart
Sa, 08.08. 20:00 0.0 l/m2 in 12 Std. -
Sa, 08.08. 14:00 0.0 l/m2 in 6 Std. -
Sa, 08.08. 8:00 0.0 l/m2 in 12 Std. -
Sa, 08.08. 2:00 0.0 l/m2 in 6 Std. -
Fr, 07.08. 20:00 0.0 l/m2 in 12 Std. -
Fr, 07.08. 14:00 0.0 l/m2 in 6 Std. -
Fr, 07.08. 8:00 0.0 l/m2 in 12 Std. -
Fr, 07.08. 2:00 0.0 l/m2 in 6 Std. -
Ortszeit Niederschlagsmenge Niederschlagsart
Sa, 08.08. 20:00 0.0 l/m2 in 1 Std. -
Sa, 08.08. 19:50 keine Meldung -
Sa, 08.08. 19:40 keine Meldung -
Sa, 08.08. 19:30 0.0 l/m2 in 1 Std. -
Sa, 08.08. 19:20 keine Meldung -
Sa, 08.08. 19:10 keine Meldung -
Sa, 08.08. 19:00 0.0 l/m2 in 1 Std. -
Sa, 08.08. 18:30 0.0 l/m2 in 1 Std. -
Sa, 08.08. 18:00 0.0 l/m2 in 1 Std. -
Sa, 08.08. 17:30 0.0 l/m2 in 1 Std. -
Sa, 08.08. 17:00 0.0 l/m2 in 1 Std. -
Sa, 08.08. 16:30 0.0 l/m2 in 1 Std. -
Ortszeit Stärke Spitze Richtung
km/h Bft. km/h Grad Sektor
Sa, 08.08. 20:00 6 1 20 110° O
Sa, 08.08. 14:00 9 2 20 220° SW
Sa, 08.08. 8:00 11 2 18 110° O
Sa, 08.08. 2:00 11 2 18 110° O
Fr, 07.08. 20:00 6 1 22 130° SO
Fr, 07.08. 14:00 11 2 29 110° O
Fr, 07.08. 8:00 7 2 22 80° O
Fr, 07.08. 2:00 9 2 19 80° O
Ortszeit Stärke Spitze Richtung
km/h Bft. km/h Grad Sektor
Sa, 08.08. 20:00 6 1 11 110° O
Sa, 08.08. 19:50 6 1 - 110° O
Sa, 08.08. 19:40 6 1 - 100° O
Sa, 08.08. 19:30 6 1 11 100° O
Sa, 08.08. 19:20 6 1 - 100° O
Sa, 08.08. 19:10 7 2 - 100° O
Sa, 08.08. 19:00 7 2 11 100° O
Sa, 08.08. 18:30 7 2 11 90° O
Sa, 08.08. 18:00 7 2 18 90° O
Sa, 08.08. 17:30 9 2 19 110° O
Sa, 08.08. 17:00 9 2 19 70° O
Sa, 08.08. 16:30 9 2 19 100° O
Ortszeit Untergrenze Bedeckung Gattung
total tief tief mittel hoch
Sa, 08.08. 20:00 - 0/8 0/8 - - -
Sa, 08.08. 14:00 - 0/8 0/8 - - -
Sa, 08.08. 8:00 - 0/8 0/8 - - -
Sa, 08.08. 2:00 - 0/8 0/8 - - -
Fr, 07.08. 20:00 - 0/8 0/8 - - -
Fr, 07.08. 14:00 1500 m 0/8 0/8 - - -
Fr, 07.08. 8:00 1800 m 6/8 6/8 - - -
Fr, 07.08. 2:00 - 0/8 0/8 - - -
Ortszeit Bedeckungsgrad in Achtel und Wolkenuntergrenze
Sa, 08.08. 20:00 keine Wolken
Sa, 08.08. 19:50 keine Wolken
Sa, 08.08. 19:40 keine Wolken
Sa, 08.08. 19:30 keine Wolken
Sa, 08.08. 19:20 keine Wolken
Sa, 08.08. 19:10 1(2700m)
Sa, 08.08. 19:00 1(3000m)
Sa, 08.08. 18:30 5(3000m)
Sa, 08.08. 18:00 1(3000m)
Sa, 08.08. 17:30 1(3000m)
Sa, 08.08. 17:00 7(3000m)
Sa, 08.08. 16:30 7(2700m)
Ortszeit Luftdruck NN (hPa) Tendenz (hPa in 3 Std.)
Sa, 08.08. 20:00 1018 - 0,4
Sa, 08.08. 14:00 1019 - 1,1
Sa, 08.08. 8:00 1021 + 0,6
Sa, 08.08. 2:00 1021 + 0,3
Fr, 07.08. 20:00 1020 - 0,5
Fr, 07.08. 14:00 1021 - 1,1
Fr, 07.08. 8:00 1023 + 0,5
Fr, 07.08. 2:00 1023 + 0,2
Ortszeit Luftdruck NN (hPa) Tendenz (hPa in 3 Std.)
Sa, 08.08. 20:00 1018 - 0,4
Sa, 08.08. 19:50 1018 keine Meldung
Sa, 08.08. 19:40 1018 keine Meldung
Sa, 08.08. 19:30 1018 - 0,6
Sa, 08.08. 19:20 1018 keine Meldung
Sa, 08.08. 19:10 1018 keine Meldung
Sa, 08.08. 19:00 1018 - 0,7
Sa, 08.08. 18:30 1018 - 0,9
Sa, 08.08. 18:00 1018 - 1,0
Sa, 08.08. 17:30 1018 - 1,0
Sa, 08.08. 17:00 1018 - 1,1
Sa, 08.08. 16:30 1018 - 1,2
Ortszeit Schneehöhe (cm)
Sa, 08.08. 20:00 -
Sa, 08.08. 14:00 -
Sa, 08.08. 8:00 -
Sa, 08.08. 2:00 -
Fr, 07.08. 20:00 -
Fr, 07.08. 14:00 -
Fr, 07.08. 8:00 -
Fr, 07.08. 2:00 -
Ortszeit Schneehöhe (cm)
Sa, 08.08. 20:00 -
Sa, 08.08. 19:50 -
Sa, 08.08. 19:40 -
Sa, 08.08. 19:30 -
Sa, 08.08. 19:20 -
Sa, 08.08. 19:10 -
Sa, 08.08. 19:00 -
Sa, 08.08. 18:30 -
Sa, 08.08. 18:00 -
Sa, 08.08. 17:30 -
Sa, 08.08. 17:00 -
Sa, 08.08. 16:30 -
Link zu dieser Seite / Seite empfehlen

Das Wetter in ...